createdAt,value
2019-03-20T00:00:26.777Z,1007.39
2019-03-20T00:01:26.959Z,1007.44
2019-03-20T00:02:27.123Z,1007.41
2019-03-20T00:03:27.291Z,1007.44
2019-03-20T00:04:27.454Z,1007.41
2019-03-20T00:05:27.630Z,1007.40
2019-03-20T00:06:27.800Z,1007.38
2019-03-20T00:07:27.972Z,1007.35
2019-03-20T00:08:28.135Z,1007.34
2019-03-20T00:09:28.313Z,1007.38
2019-03-20T00:10:28.472Z,1007.40
2019-03-20T00:11:28.646Z,1007.39
2019-03-20T00:12:28.825Z,1007.36
2019-03-20T00:13:28.986Z,1007.37
2019-03-20T00:14:29.155Z,1007.36
2019-03-20T00:15:29.328Z,1007.36
2019-03-20T00:16:29.495Z,1007.36
2019-03-20T00:17:29.663Z,1007.34
2019-03-20T00:18:29.836Z,1007.31
2019-03-20T00:19:30.002Z,1007.35
2019-03-20T00:20:30.177Z,1007.34
2019-03-20T00:21:30.343Z,1007.32
2019-03-20T00:22:30.513Z,1007.34
2019-03-20T00:23:30.689Z,1007.33
2019-03-20T00:24:30.887Z,1007.33
2019-03-20T00:25:32.020Z,1007.35
2019-03-20T00:26:31.208Z,1007.35
2019-03-20T00:27:31.367Z,1007.34
2019-03-20T00:28:31.529Z,1007.33
2019-03-20T00:29:31.714Z,1007.34
2019-03-20T00:30:31.882Z,1007.36
2019-03-20T00:31:32.047Z,1007.29
2019-03-20T00:32:32.218Z,1007.33
2019-03-20T00:33:32.387Z,1007.28
2019-03-20T00:34:32.550Z,1007.28
2019-03-20T00:35:32.720Z,1007.26
2019-03-20T00:36:32.888Z,1007.25
2019-03-20T00:37:33.060Z,1007.26
2019-03-20T00:38:33.225Z,1007.24
2019-03-20T00:39:33.376Z,1007.26
2019-03-20T00:40:33.552Z,1007.21
2019-03-20T00:41:33.722Z,1007.18
2019-03-20T00:42:35.492Z,1007.24
2019-03-20T00:43:34.064Z,1007.23
2019-03-20T00:44:34.231Z,1007.29
2019-03-20T00:45:34.405Z,1007.32
2019-03-20T00:46:34.588Z,1007.32
2019-03-20T00:47:34.739Z,1007.33
2019-03-20T00:48:34.922Z,1007.38
2019-03-20T00:49:35.084Z,1007.35
2019-03-20T00:50:35.255Z,1007.35
2019-03-20T00:51:35.426Z,1007.36
2019-03-20T00:52:35.593Z,1007.38
2019-03-20T00:53:35.761Z,1007.33
2019-03-20T00:54:35.938Z,1007.33
2019-03-20T00:55:36.099Z,1007.35
2019-03-20T00:56:36.267Z,1007.35
2019-03-20T00:57:36.439Z,1007.37
2019-03-20T00:58:36.618Z,1007.35
2019-03-20T00:59:36.780Z,1007.33
2019-03-20T01:00:36.985Z,1007.38
2019-03-20T01:01:37.148Z,1007.36
2019-03-20T01:02:37.314Z,1007.35
2019-03-20T01:03:37.475Z,1007.29
2019-03-20T01:04:37.633Z,1007.27
2019-03-20T01:05:37.805Z,1007.25
2019-03-20T01:06:37.958Z,1007.28
2019-03-20T01:07:38.137Z,1007.28
2019-03-20T01:08:38.315Z,1007.31
2019-03-20T01:09:38.472Z,1007.32
2019-03-20T01:10:38.642Z,1007.29
2019-03-20T01:11:38.810Z,1007.26
2019-03-20T01:12:38.988Z,1007.22
2019-03-20T01:14:39.317Z,1007.24
2019-03-20T01:15:39.479Z,1007.27
2019-03-20T01:16:39.648Z,1007.26
2019-03-20T01:17:39.841Z,1007.27
2019-03-20T01:18:39.985Z,1007.24
2019-03-20T01:19:40.154Z,1007.25
2019-03-20T01:20:40.333Z,1007.21
2019-03-20T01:21:40.494Z,1007.27
2019-03-20T01:22:40.663Z,1007.22
2019-03-20T01:23:40.831Z,1007.26
2019-03-20T01:24:40.999Z,1007.21
2019-03-20T01:25:41.168Z,1007.29
2019-03-20T01:26:41.357Z,1007.29
2019-03-20T01:27:41.541Z,1007.28
2019-03-20T01:28:41.769Z,1007.29
2019-03-20T01:29:41.875Z,1007.29
2019-03-20T01:30:42.049Z,1007.34
2019-03-20T01:31:42.215Z,1007.31
2019-03-20T01:32:42.387Z,1007.30
2019-03-20T01:33:42.544Z,1007.32
2019-03-20T01:34:42.711Z,1007.26
2019-03-20T01:35:42.881Z,1007.24
2019-03-20T01:36:43.050Z,1007.21
2019-03-20T01:37:43.221Z,1007.18
2019-03-20T01:38:43.388Z,1007.21
2019-03-20T01:39:43.557Z,1007.20
2019-03-20T01:40:43.739Z,1007.23
2019-03-20T01:41:43.910Z,1007.23
2019-03-20T01:42:44.071Z,1007.28
2019-03-20T01:43:44.239Z,1007.32
2019-03-20T01:44:44.410Z,1007.34
2019-03-20T01:45:44.575Z,1007.33
2019-03-20T01:46:44.738Z,1007.36
2019-03-20T01:47:44.915Z,1007.38
2019-03-20T01:48:45.083Z,1007.41
2019-03-20T01:49:45.252Z,1007.38
2019-03-20T01:50:45.423Z,1007.39
2019-03-20T01:51:45.586Z,1007.31
2019-03-20T01:52:45.759Z,1007.27
2019-03-20T01:53:45.927Z,1007.24
2019-03-20T01:54:46.093Z,1007.22
2019-03-20T01:55:46.262Z,1007.30
2019-03-20T01:56:46.435Z,1007.32
2019-03-20T01:57:46.602Z,1007.29
2019-03-20T01:58:46.782Z,1007.30
2019-03-20T01:59:46.947Z,1007.29
2019-03-20T02:00:47.130Z,1007.33
2019-03-20T02:01:47.269Z,1007.30
2019-03-20T02:02:47.451Z,1007.37
2019-03-20T02:03:47.603Z,1007.37
2019-03-20T02:04:47.754Z,1007.33
2019-03-20T02:05:47.920Z,1007.36
2019-03-20T02:06:48.088Z,1007.44
2019-03-20T02:07:48.269Z,1007.43
2019-03-20T02:08:48.437Z,1007.41
2019-03-20T02:09:48.606Z,1007.41
2019-03-20T02:10:48.775Z,1007.36
2019-03-20T02:11:48.948Z,1007.41
2019-03-20T02:12:49.112Z,1007.33
2019-03-20T02:13:49.282Z,1007.33
2019-03-20T02:14:49.451Z,1007.34
2019-03-20T02:15:49.621Z,1007.34
2019-03-20T02:16:49.797Z,1007.34
2019-03-20T02:17:49.969Z,1007.33
2019-03-20T02:18:50.140Z,1007.36
2019-03-20T02:19:50.311Z,1007.38
2019-03-20T02:20:50.472Z,1007.37
2019-03-20T02:21:50.639Z,1007.43
2019-03-20T02:22:50.811Z,1007.42
2019-03-20T02:23:50.977Z,1007.36
2019-03-20T02:24:51.148Z,1007.43
2019-03-20T02:25:51.318Z,1007.46
2019-03-20T02:26:51.488Z,1007.53
2019-03-20T02:27:51.652Z,1007.56
2019-03-20T02:28:51.831Z,1007.56
2019-03-20T02:29:51.991Z,1007.51
2019-03-20T02:30:52.157Z,1007.53
2019-03-20T02:31:52.329Z,1007.53
2019-03-20T02:32:52.507Z,1007.52
2019-03-20T02:33:52.671Z,1007.55
2019-03-20T02:34:52.835Z,1007.56
2019-03-20T02:35:53.036Z,1007.58
2019-03-20T02:36:53.146Z,1007.60
2019-03-20T02:37:53.316Z,1007.62
2019-03-20T02:38:53.484Z,1007.61
2019-03-20T02:39:53.654Z,1007.61
2019-03-20T02:40:53.825Z,1007.65
2019-03-20T02:41:53.994Z,1007.62
2019-03-20T02:42:54.174Z,1007.60
2019-03-20T02:43:54.343Z,1007.63
2019-03-20T02:44:54.498Z,1007.61
2019-03-20T02:45:54.670Z,1007.57
2019-03-20T02:46:54.838Z,1007.49
2019-03-20T02:47:55.004Z,1007.53
2019-03-20T02:48:55.175Z,1007.49
2019-03-20T02:49:55.345Z,1007.54
2019-03-20T02:50:55.520Z,1007.51
2019-03-20T02:51:55.682Z,1007.53
2019-03-20T02:52:55.847Z,1007.50
2019-03-20T02:53:56.016Z,1007.56
2019-03-20T02:54:56.180Z,1007.50
2019-03-20T02:55:56.358Z,1007.47
2019-03-20T02:56:56.526Z,1007.52
2019-03-20T02:57:56.703Z,1007.51
2019-03-20T02:58:56.878Z,1007.57
2019-03-20T02:59:57.055Z,1007.59
2019-03-20T03:00:57.203Z,1007.61
2019-03-20T03:01:57.374Z,1007.63
2019-03-20T03:02:57.557Z,1007.57
2019-03-20T03:03:57.705Z,1007.62
2019-03-20T03:04:57.886Z,1007.59
2019-03-20T03:06:06.663Z,1007.64
2019-03-20T03:06:58.229Z,1007.52
2019-03-20T03:07:58.368Z,1007.51
2019-03-20T03:08:58.552Z,1007.51
2019-03-20T03:09:58.711Z,1007.50
2019-03-20T03:10:58.880Z,1007.51
2019-03-20T03:11:59.047Z,1007.54
2019-03-20T03:12:59.218Z,1007.54
2019-03-20T03:13:59.388Z,1007.54
2019-03-20T03:14:59.557Z,1007.61
2019-03-20T03:15:59.726Z,1007.63
2019-03-20T03:16:59.923Z,1007.60
2019-03-20T03:18:00.058Z,1007.60
2019-03-20T03:19:00.229Z,1007.59
2019-03-20T03:20:00.561Z,1007.57
2019-03-20T03:21:00.561Z,1007.59
2019-03-20T03:22:00.728Z,1007.63
2019-03-20T03:23:00.901Z,1007.64
2019-03-20T03:24:01.066Z,1007.65
2019-03-20T03:25:01.368Z,1007.64
2019-03-20T03:26:01.443Z,1007.64
2019-03-20T03:27:01.575Z,1007.66
2019-03-20T03:28:01.753Z,1007.69
2019-03-20T03:29:01.947Z,1007.68
2019-03-20T03:30:02.176Z,1007.67
2019-03-20T03:31:02.297Z,1007.65
2019-03-20T03:32:02.424Z,1007.73
2019-03-20T03:33:02.594Z,1007.70
2019-03-20T03:34:02.763Z,1007.71
2019-03-20T03:35:02.951Z,1007.70
2019-03-20T03:36:03.111Z,1007.69
2019-03-20T03:37:03.272Z,1007.70
2019-03-20T03:38:03.442Z,1007.68
2019-03-20T03:39:03.608Z,1007.71
2019-03-20T03:40:03.853Z,1007.68
2019-03-20T03:41:03.960Z,1007.69
2019-03-20T03:42:04.130Z,1007.70
2019-03-20T03:43:04.303Z,1007.72
2019-03-20T03:44:04.424Z,1007.68
2019-03-20T03:45:04.594Z,1007.68
2019-03-20T03:46:04.761Z,1007.74
2019-03-20T03:47:04.933Z,1007.71
2019-03-20T03:48:05.091Z,1007.78
2019-03-20T03:49:05.281Z,1007.78
2019-03-20T03:50:05.436Z,1007.81
2019-03-20T03:51:05.603Z,1007.81
2019-03-20T03:52:05.786Z,1007.82
2019-03-20T03:53:05.942Z,1007.85
2019-03-20T03:54:06.125Z,1007.84
2019-03-20T03:55:06.285Z,1007.81
2019-03-20T03:56:06.457Z,1007.80
2019-03-20T03:57:06.637Z,1007.77
2019-03-20T03:58:06.805Z,1007.84
2019-03-20T03:59:06.965Z,1007.82
2019-03-20T04:00:07.146Z,1007.77
2019-03-20T04:01:07.333Z,1007.87
2019-03-20T04:02:07.498Z,1007.88
2019-03-20T04:03:07.638Z,1007.87
2019-03-20T04:04:07.818Z,1007.84
2019-03-20T04:05:07.979Z,1007.83
2019-03-20T04:06:08.159Z,1007.80
2019-03-20T04:07:08.323Z,1007.81
2019-03-20T04:08:08.477Z,1007.77
2019-03-20T04:09:10.651Z,1007.78
2019-03-20T04:10:08.820Z,1007.81
2019-03-20T04:11:08.985Z,1007.81
2019-03-20T04:12:09.174Z,1007.81
2019-03-20T04:13:09.328Z,1007.83
2019-03-20T04:14:09.497Z,1007.88
2019-03-20T04:15:09.666Z,1007.82
2019-03-20T04:16:09.833Z,1007.85
2019-03-20T04:17:10.022Z,1007.84
2019-03-20T04:18:10.189Z,1007.82
2019-03-20T04:19:10.363Z,1007.85
2019-03-20T04:20:10.527Z,1007.84
2019-03-20T04:21:10.720Z,1007.83
2019-03-20T04:22:10.858Z,1007.88
2019-03-20T04:23:11.027Z,1007.87
2019-03-20T04:24:11.198Z,1007.89
2019-03-20T04:25:11.374Z,1007.87
2019-03-20T04:26:11.531Z,1007.92
2019-03-20T04:27:11.697Z,1007.95
2019-03-20T04:28:11.859Z,1007.92
2019-03-20T04:29:12.029Z,1007.91
2019-03-20T04:30:12.211Z,1007.89
2019-03-20T04:31:12.363Z,1007.90
2019-03-20T04:32:12.533Z,1007.88
2019-03-20T04:33:12.704Z,1007.95
2019-03-20T04:34:12.871Z,1007.92
2019-03-20T04:35:13.039Z,1007.94
2019-03-20T04:36:13.207Z,1007.91
2019-03-20T04:37:13.378Z,1007.92
2019-03-20T04:38:13.547Z,1007.93
2019-03-20T04:39:13.721Z,1007.95
2019-03-20T04:40:13.889Z,1007.96
2019-03-20T04:41:14.088Z,1007.94
2019-03-20T04:42:14.216Z,1007.97
2019-03-20T04:43:14.389Z,1007.98
2019-03-20T04:44:14.550Z,1007.98
2019-03-20T04:45:14.725Z,1007.99
2019-03-20T04:46:14.891Z,1007.99
2019-03-20T04:47:15.063Z,1008.01
2019-03-20T04:48:15.230Z,1008.03
2019-03-20T04:49:15.397Z,1008.02
2019-03-20T04:50:15.567Z,1007.95
2019-03-20T04:51:15.738Z,1007.96
2019-03-20T04:52:15.912Z,1007.98
2019-03-20T04:53:16.074Z,1008.01
2019-03-20T04:54:16.236Z,1008.02
2019-03-20T04:55:16.414Z,1008.07
2019-03-20T04:56:16.576Z,1008.15
2019-03-20T04:57:16.751Z,1008.17
2019-03-20T04:58:16.923Z,1008.16
2019-03-20T04:59:17.084Z,1008.20
2019-03-20T05:00:17.267Z,1008.20
2019-03-20T05:01:17.440Z,1008.19
2019-03-20T05:02:17.609Z,1008.17
2019-03-20T05:03:17.776Z,1008.28
2019-03-20T05:04:17.939Z,1008.23
2019-03-20T05:05:18.113Z,1008.15
2019-03-20T05:06:18.281Z,1008.16
2019-03-20T05:07:18.448Z,1008.14
2019-03-20T05:08:18.626Z,1008.17
2019-03-20T05:09:18.791Z,1008.15
2019-03-20T05:10:18.955Z,1008.17
2019-03-20T05:11:19.118Z,1008.10
2019-03-20T05:12:19.290Z,1008.12
2019-03-20T05:13:19.467Z,1008.12
2019-03-20T05:14:19.629Z,1008.17
2019-03-20T05:15:19.797Z,1008.17
2019-03-20T05:16:19.965Z,1008.13
2019-03-20T05:17:20.131Z,1008.13
2019-03-20T05:18:20.303Z,1008.17
2019-03-20T05:19:20.465Z,1008.15
2019-03-20T05:20:20.646Z,1008.19
2019-03-20T05:21:20.809Z,1008.19
2019-03-20T05:22:20.975Z,1008.22
2019-03-20T05:23:21.139Z,1008.22
2019-03-20T05:24:21.305Z,1008.18
2019-03-20T05:25:21.467Z,1008.20
2019-03-20T05:26:21.637Z,1008.21
2019-03-20T05:27:21.815Z,1008.18
2019-03-20T05:28:21.979Z,1008.22
2019-03-20T05:29:22.151Z,1008.21
2019-03-20T05:30:22.324Z,1008.20
2019-03-20T05:31:22.482Z,1008.17
2019-03-20T05:32:22.659Z,1008.23
2019-03-20T05:33:22.819Z,1008.25
2019-03-20T05:34:22.999Z,1008.20
2019-03-20T05:35:23.158Z,1008.25
2019-03-20T05:36:23.331Z,1008.24
2019-03-20T05:37:23.498Z,1008.26
2019-03-20T05:38:23.663Z,1008.30
2019-03-20T05:39:23.839Z,1008.34
2019-03-20T05:40:24.010Z,1008.33
2019-03-20T05:41:24.177Z,1008.32
2019-03-20T05:42:24.347Z,1008.34
2019-03-20T05:43:24.514Z,1008.35
2019-03-20T05:44:24.697Z,1008.36
2019-03-20T05:45:24.854Z,1008.36
2019-03-20T05:46:25.026Z,1008.34
2019-03-20T05:47:25.195Z,1008.34
2019-03-20T05:48:25.362Z,1008.36
2019-03-20T05:49:25.523Z,1008.37
2019-03-20T05:50:25.694Z,1008.36
2019-03-20T05:51:25.865Z,1008.37
2019-03-20T05:52:26.034Z,1008.34
2019-03-20T05:53:26.205Z,1008.40
2019-03-20T05:54:26.374Z,1008.36
2019-03-20T05:55:26.535Z,1008.37
2019-03-20T05:56:26.715Z,1008.38
2019-03-20T05:57:26.884Z,1008.41
2019-03-20T05:58:27.060Z,1008.45
2019-03-20T05:59:27.229Z,1008.40
2019-03-20T06:00:27.386Z,1008.46
2019-03-20T06:01:27.557Z,1008.48
2019-03-20T06:02:27.732Z,1008.48
2019-03-20T06:03:27.902Z,1008.51
2019-03-20T06:04:28.069Z,1008.56
2019-03-20T06:05:28.256Z,1008.54
2019-03-20T06:06:28.413Z,1008.58
2019-03-20T06:07:28.604Z,1008.58
2019-03-20T06:08:31.205Z,1008.60
2019-03-20T06:09:28.909Z,1008.58
2019-03-20T06:13:59.552Z,1008.60
2019-03-20T06:14:59.720Z,1008.61
2019-03-20T06:15:59.894Z,1008.60
2019-03-20T06:17:00.095Z,1008.57
2019-03-20T06:18:00.271Z,1008.67
2019-03-20T06:19:01.289Z,1008.72
2019-03-20T06:20:00.616Z,1008.73
2019-03-20T06:21:00.780Z,1008.84
2019-03-20T06:22:00.942Z,1008.89
2019-03-20T06:23:01.120Z,1008.90
2019-03-20T06:24:01.273Z,1008.92
2019-03-20T06:25:01.446Z,1008.91
2019-03-20T06:26:01.642Z,1008.92
2019-03-20T06:27:01.796Z,1008.90
2019-03-20T06:28:01.977Z,1008.93
2019-03-20T06:29:02.126Z,1008.93
2019-03-20T06:30:02.293Z,1008.95
2019-03-20T06:31:02.462Z,1009.00
2019-03-20T06:32:02.629Z,1009.04
2019-03-20T06:33:02.811Z,1009.02
2019-03-20T06:34:02.973Z,1009.00
2019-03-20T06:36:03.307Z,1009.07
2019-03-20T06:37:03.489Z,1009.09
2019-03-20T06:38:03.657Z,1009.12
2019-03-20T06:39:04.993Z,1009.12
2019-03-20T06:40:04.004Z,1009.13
2019-03-20T06:41:04.177Z,1009.18
2019-03-20T06:42:04.354Z,1009.14
2019-03-20T06:43:04.531Z,1009.23
2019-03-20T06:44:04.705Z,1009.28
2019-03-20T06:45:04.869Z,1009.27
2019-03-20T06:46:05.038Z,1009.28
2019-03-20T06:47:05.275Z,1009.34
2019-03-20T06:48:05.373Z,1009.33
2019-03-20T06:49:07.855Z,1009.36
2019-03-20T06:50:05.709Z,1009.34
2019-03-20T06:51:05.884Z,1009.41
2019-03-20T06:52:06.064Z,1009.36
2019-03-20T06:53:06.235Z,1009.42
2019-03-20T06:54:06.408Z,1009.41
2019-03-20T06:55:06.578Z,1009.43
2019-03-20T06:56:06.754Z,1009.40
2019-03-20T06:57:06.929Z,1009.43
2019-03-20T06:58:07.099Z,1009.42
2019-03-20T06:59:07.276Z,1009.41
2019-03-20T07:00:07.546Z,1009.41
2019-03-20T07:01:07.633Z,1009.41
2019-03-20T07:02:07.807Z,1009.48
2019-03-20T07:03:07.989Z,1009.43
2019-03-20T07:04:08.174Z,1009.43
2019-03-20T07:05:08.367Z,1009.47
2019-03-20T07:06:08.597Z,1009.45
2019-03-20T07:07:08.649Z,1009.47
2019-03-20T07:08:08.828Z,1009.49
2019-03-20T07:09:09.002Z,1009.47
2019-03-20T07:10:09.183Z,1009.47
2019-03-20T07:11:09.366Z,1009.47
2019-03-20T07:12:09.535Z,1009.43
2019-03-20T07:13:09.712Z,1009.47
2019-03-20T07:14:09.887Z,1009.47
2019-03-20T07:15:10.064Z,1009.40
2019-03-20T07:16:10.244Z,1009.43
2019-03-20T07:17:10.608Z,1009.45
2019-03-20T07:18:10.661Z,1009.44
2019-03-20T07:19:10.784Z,1009.43
2019-03-20T07:20:10.951Z,1009.44
2019-03-20T07:21:11.136Z,1009.39
2019-03-20T07:22:11.306Z,1009.47
2019-03-20T07:23:11.479Z,1009.47
2019-03-20T07:24:11.664Z,1009.42
2019-03-20T07:25:11.830Z,1009.51
2019-03-20T07:26:12.013Z,1009.45
2019-03-20T07:27:12.180Z,1009.51
2019-03-20T07:28:12.358Z,1009.51
2019-03-20T07:29:12.536Z,1009.51
2019-03-20T07:30:12.709Z,1009.55
2019-03-20T07:31:15.721Z,1009.50
2019-03-20T07:32:13.071Z,1009.50
2019-03-20T07:33:13.252Z,1009.60
2019-03-20T07:34:13.425Z,1009.62
2019-03-20T07:35:13.601Z,1009.59
2019-03-20T07:36:13.781Z,1009.59
2019-03-20T07:37:13.956Z,1009.61
2019-03-20T07:38:14.135Z,1009.54
2019-03-20T07:39:14.312Z,1009.55
2019-03-20T07:40:14.490Z,1009.54
2019-03-20T07:41:14.668Z,1009.55
2019-03-20T07:42:14.848Z,1009.58
2019-03-20T07:43:15.031Z,1009.61
2019-03-20T07:44:15.254Z,1009.62
2019-03-20T07:45:15.370Z,1009.57
2019-03-20T07:46:15.550Z,1009.67
2019-03-20T07:47:15.779Z,1009.64
2019-03-20T07:48:22.176Z,1009.68
2019-03-20T07:49:16.083Z,1009.68
2019-03-20T07:50:16.294Z,1009.67
2019-03-20T07:51:16.467Z,1009.69
2019-03-20T07:52:16.645Z,1009.64
2019-03-20T07:53:16.819Z,1009.64
2019-03-20T07:54:17.014Z,1009.66
2019-03-20T07:55:17.187Z,1009.67
2019-03-20T07:56:17.353Z,1009.68
2019-03-20T07:57:17.529Z,1009.71
2019-03-20T07:58:17.727Z,1009.73
2019-03-20T07:59:18.006Z,1009.73
2019-03-20T08:00:18.051Z,1009.70
2019-03-20T08:01:20.241Z,1009.75
2019-03-20T08:02:18.407Z,1009.79
2019-03-20T08:03:18.588Z,1009.81
2019-03-20T08:04:18.751Z,1009.77
2019-03-20T08:05:28.763Z,1009.77
2019-03-20T08:06:19.101Z,1009.76
2019-03-20T08:07:19.273Z,1009.73
2019-03-20T08:08:19.451Z,1009.71
2019-03-20T08:09:19.689Z,1009.69
2019-03-20T08:10:19.837Z,1009.74
2019-03-20T08:11:19.990Z,1009.74
2019-03-20T08:12:20.174Z,1009.81
2019-03-20T08:13:20.355Z,1009.78
2019-03-20T08:14:20.535Z,1009.81
2019-03-20T08:15:20.711Z,1009.81
2019-03-20T08:16:20.894Z,1009.79
2019-03-20T08:17:21.065Z,1009.80
2019-03-20T08:18:21.251Z,1009.83
2019-03-20T08:19:21.449Z,1009.88
2019-03-20T08:20:21.605Z,1009.90
2019-03-20T08:21:21.790Z,1009.94
2019-03-20T08:22:21.963Z,1009.88
2019-03-20T08:23:22.153Z,1009.86
2019-03-20T08:24:22.322Z,1009.87
2019-03-20T08:25:22.505Z,1009.83
2019-03-20T08:26:22.692Z,1009.82
2019-03-20T08:27:22.861Z,1009.88
2019-03-20T08:28:23.049Z,1009.89
2019-03-20T08:29:23.221Z,1009.85
2019-03-20T08:30:23.412Z,1009.90
2019-03-20T08:31:23.580Z,1009.88
2019-03-20T08:32:23.766Z,1009.88
2019-03-20T08:33:23.941Z,1009.88
2019-03-20T08:34:24.129Z,1009.80
2019-03-20T08:35:24.319Z,1009.87
2019-03-20T08:36:24.476Z,1009.88
2019-03-20T08:37:24.665Z,1009.86
2019-03-20T08:38:24.841Z,1009.87
2019-03-20T08:39:25.040Z,1009.87
2019-03-20T08:40:25.195Z,1009.87
2019-03-20T08:41:25.374Z,1009.86
2019-03-20T08:42:25.553Z,1009.87
2019-03-20T08:43:25.736Z,1009.84
2019-03-20T08:44:25.918Z,1009.84
2019-03-20T08:45:26.103Z,1009.87
2019-03-20T08:46:26.279Z,1009.83
2019-03-20T08:47:26.466Z,1009.81
2019-03-20T08:48:26.649Z,1009.86
2019-03-20T08:49:26.948Z,1009.86
2019-03-20T08:50:28.853Z,1009.85
2019-03-20T08:51:27.121Z,1009.84
2019-03-20T08:52:27.304Z,1009.88
2019-03-20T08:53:27.485Z,1009.84
2019-03-20T08:54:27.684Z,1009.86
2019-03-20T08:55:27.797Z,1009.84
2019-03-20T08:56:28.022Z,1009.83
2019-03-20T08:57:28.158Z,1009.82
2019-03-20T08:58:28.343Z,1009.80
2019-03-20T08:59:28.502Z,1009.78
2019-03-20T09:01:29.225Z,1009.77
2019-03-20T09:02:30.193Z,1009.81
2019-03-20T09:03:29.161Z,1009.80
2019-03-20T09:04:29.736Z,1009.83
2019-03-20T09:05:29.570Z,1009.84
2019-03-20T09:06:29.797Z,1009.85
2019-03-20T09:07:29.882Z,1009.84
2019-03-20T09:08:30.136Z,1009.86
2019-03-20T09:09:30.233Z,1009.81
2019-03-20T09:10:30.343Z,1009.85
2019-03-20T09:11:31.346Z,1009.85
2019-03-20T09:12:31.345Z,1009.87
2019-03-20T09:13:30.863Z,1009.90
2019-03-20T09:14:31.017Z,1009.87
2019-03-20T09:15:31.201Z,1009.89
2019-03-20T09:16:31.346Z,1009.84
2019-03-20T09:17:31.529Z,1009.86
2019-03-20T09:18:31.735Z,1009.89
2019-03-20T09:19:31.851Z,1009.92
2019-03-20T09:20:32.027Z,1009.91
2019-03-20T09:21:32.194Z,1009.92
2019-03-20T09:22:32.361Z,1009.88
2019-03-20T09:23:32.549Z,1009.93
2019-03-20T09:24:32.730Z,1009.92
2019-03-20T09:25:32.868Z,1009.88
2019-03-20T09:26:33.047Z,1009.88
2019-03-20T09:27:33.261Z,1009.91
2019-03-20T09:28:33.463Z,1009.91
2019-03-20T09:29:36.235Z,1009.90
2019-03-20T09:30:33.808Z,1009.90
2019-03-20T09:31:33.939Z,1009.91
2019-03-20T09:32:34.145Z,1009.90
2019-03-20T09:33:34.306Z,1009.95
2019-03-20T09:34:34.445Z,1009.92
2019-03-20T09:35:34.628Z,1009.93
2019-03-20T09:36:43.093Z,1009.93
2019-03-20T09:37:35.498Z,1009.91
2019-03-20T09:38:43.291Z,1009.94
2019-03-20T09:39:35.515Z,1009.90
2019-03-20T09:40:35.795Z,1009.88
2019-03-20T09:41:35.797Z,1009.85
2019-03-20T09:43:36.174Z,1009.80
2019-03-20T09:44:36.277Z,1009.82
2019-03-20T09:45:36.447Z,1009.78
2019-03-20T09:46:36.621Z,1009.81
2019-03-20T09:47:36.818Z,1009.83
2019-03-20T09:48:36.983Z,1009.80
2019-03-20T09:49:37.142Z,1009.78
2019-03-20T09:50:37.389Z,1009.74
2019-03-20T09:51:37.487Z,1009.74
2019-03-20T09:52:37.685Z,1009.75
2019-03-20T09:53:37.855Z,1009.64
2019-03-20T09:54:38.052Z,1009.68
2019-03-20T09:55:38.209Z,1009.71
2019-03-20T09:56:38.376Z,1009.71
2019-03-20T09:57:38.596Z,1009.67
2019-03-20T09:58:38.752Z,1009.72
2019-03-20T09:59:38.922Z,1009.69
2019-03-20T10:00:39.143Z,1009.70
2019-03-20T10:01:39.258Z,1009.65
2019-03-20T10:02:39.452Z,1009.64
2019-03-20T10:03:39.679Z,1009.62
2019-03-20T10:04:39.877Z,1009.64
2019-03-20T10:05:40.022Z,1009.66
2019-03-20T10:06:40.249Z,1009.67
2019-03-20T10:07:40.361Z,1009.65
2019-03-20T10:08:40.520Z,1009.59
2019-03-20T10:09:41.052Z,1009.60
2019-03-20T10:10:40.890Z,1009.65
2019-03-20T10:11:41.043Z,1009.62
2019-03-20T10:12:41.273Z,1009.63
2019-03-20T10:13:41.379Z,1009.61
2019-03-20T10:14:41.618Z,1009.62
2019-03-20T10:15:41.918Z,1009.63
2019-03-20T10:16:41.938Z,1009.64
2019-03-20T10:17:42.165Z,1009.62
2019-03-20T10:18:42.334Z,1009.59
2019-03-20T10:19:42.444Z,1009.60
2019-03-20T10:20:42.630Z,1009.59
2019-03-20T10:21:42.797Z,1009.59
2019-03-20T10:22:43.024Z,1009.62
2019-03-20T10:23:43.223Z,1009.59
2019-03-20T10:24:43.467Z,1009.53
2019-03-20T10:25:44.827Z,1009.59
2019-03-20T10:26:43.771Z,1009.56
2019-03-20T10:27:43.913Z,1009.57
2019-03-20T10:28:44.105Z,1009.55
2019-03-20T10:29:44.258Z,1009.50
2019-03-20T10:30:44.445Z,1009.55
2019-03-20T10:32:44.852Z,1009.52
2019-03-20T10:33:45.235Z,1009.46
2019-03-20T10:34:45.213Z,1009.50
2019-03-20T10:35:50.204Z,1009.47
2019-03-20T10:36:52.763Z,1009.48
2019-03-20T10:37:53.169Z,1009.50
2019-03-20T10:38:48.623Z,1009.44
2019-03-20T10:39:46.138Z,1009.44
2019-03-20T10:40:46.255Z,1009.41
2019-03-20T10:41:46.424Z,1009.38
2019-03-20T10:42:52.943Z,1009.37
2019-03-20T10:43:46.823Z,1009.36
2019-03-20T10:44:47.023Z,1009.38
2019-03-20T10:45:47.094Z,1009.34
2019-03-20T10:46:47.414Z,1009.34
2019-03-20T10:47:47.466Z,1009.34
2019-03-20T10:48:47.932Z,1009.29
2019-03-20T10:49:47.787Z,1009.34
2019-03-20T10:50:47.974Z,1009.31
2019-03-20T10:51:48.214Z,1009.29
2019-03-20T10:52:48.319Z,1009.27
2019-03-20T10:53:48.565Z,1009.26
2019-03-20T10:54:48.795Z,1009.29
2019-03-20T10:55:48.849Z,1009.32
2019-03-20T10:56:49.037Z,1009.27
2019-03-20T10:57:49.238Z,1009.26
2019-03-20T10:58:49.448Z,1009.25
2019-03-20T10:59:49.565Z,1009.21
2019-03-20T11:00:49.761Z,1009.26
2019-03-20T11:01:49.970Z,1009.24
2019-03-20T11:02:50.073Z,1009.23
2019-03-20T11:03:50.239Z,1009.24
2019-03-20T11:04:50.462Z,1009.26
2019-03-20T11:05:50.852Z,1009.26
2019-03-20T11:06:51.127Z,1009.27
2019-03-20T11:07:51.155Z,1009.27
2019-03-20T11:08:51.456Z,1009.25
2019-03-20T11:09:51.609Z,1009.18
2019-03-20T11:10:51.729Z,1009.25
2019-03-20T11:11:51.932Z,1009.21
2019-03-20T11:12:52.394Z,1009.21
2019-03-20T11:13:52.849Z,1009.21
2019-03-20T11:14:52.633Z,1009.23
2019-03-20T11:15:52.776Z,1009.25
2019-03-20T11:16:52.901Z,1009.24
2019-03-20T11:17:53.041Z,1009.18
2019-03-20T11:18:53.216Z,1009.20
2019-03-20T11:19:56.128Z,1009.17
2019-03-20T11:20:53.815Z,1009.19
2019-03-20T11:21:53.756Z,1009.18
2019-03-20T11:22:54.083Z,1009.21
2019-03-20T11:23:54.184Z,1009.18
2019-03-20T11:24:54.237Z,1009.17
2019-03-20T11:25:54.390Z,1009.15
2019-03-20T11:26:54.630Z,1009.12
2019-03-20T11:27:54.669Z,1009.13
2019-03-20T11:28:54.955Z,1009.20
2019-03-20T11:29:55.244Z,1009.13
2019-03-20T11:30:55.406Z,1009.11
2019-03-20T11:31:55.539Z,1009.16
2019-03-20T11:32:55.724Z,1009.13
2019-03-20T11:33:55.922Z,1009.14
2019-03-20T11:34:56.000Z,1009.12
2019-03-20T11:35:56.235Z,1009.13
2019-03-20T11:36:56.315Z,1009.11
2019-03-20T11:37:56.637Z,1009.14
2019-03-20T11:38:56.792Z,1009.11
2019-03-20T11:39:56.953Z,1009.10
2019-03-20T11:40:57.146Z,1009.09
2019-03-20T11:41:57.233Z,1009.05
2019-03-20T11:42:57.421Z,1009.09
2019-03-20T11:43:57.615Z,1009.11
2019-03-20T11:44:57.785Z,1009.05
2019-03-20T11:45:57.945Z,1009.06
2019-03-20T11:46:58.134Z,1009.09
2019-03-20T11:47:58.298Z,1009.08
2019-03-20T11:49:04.386Z,1009.04
2019-03-20T11:49:58.676Z,1009.01
2019-03-20T11:50:58.878Z,1009.02
2019-03-20T11:51:59.025Z,1009.02
2019-03-20T11:52:59.197Z,1008.94
2019-03-20T11:53:59.383Z,1008.90
2019-03-20T11:54:59.620Z,1008.94
2019-03-20T11:55:59.735Z,1008.93
2019-03-20T11:56:59.939Z,1008.95
2019-03-20T11:58:00.155Z,1008.98
2019-03-20T11:59:00.341Z,1008.93
2019-03-20T12:00:00.519Z,1008.97
2019-03-20T12:01:00.725Z,1008.94
2019-03-20T12:02:00.899Z,1008.94
2019-03-20T12:03:01.193Z,1008.94
2019-03-20T12:04:01.304Z,1008.96
2019-03-20T12:05:01.553Z,1008.95
2019-03-20T12:06:01.556Z,1008.91
2019-03-20T12:07:01.830Z,1008.90
2019-03-20T12:08:03.509Z,1008.91
2019-03-20T12:09:02.214Z,1008.88
2019-03-20T12:10:02.606Z,1008.86
2019-03-20T12:11:02.640Z,1008.86
2019-03-20T12:12:03.032Z,1008.86
2019-03-20T12:13:03.021Z,1008.78
2019-03-20T12:14:03.072Z,1008.79
2019-03-20T12:15:03.256Z,1008.83
2019-03-20T12:16:03.721Z,1008.84